sensor_id;sensor_type;location;lat;lon;timestamp;P1;durP1;ratioP1;P2;durP2;ratioP2
45676;SDS011;31390;51.186;6.830;2023-03-01T00:01:55;11.80;;;9.83;;
45676;SDS011;31390;51.186;6.830;2023-03-01T00:04:22;13.77;;;9.87;;
45676;SDS011;31390;51.186;6.830;2023-03-01T00:06:48;12.10;;;10.27;;
45676;SDS011;31390;51.186;6.830;2023-03-01T00:09:15;12.63;;;10.17;;
45676;SDS011;31390;51.186;6.830;2023-03-01T00:11:42;10.30;;;9.30;;
45676;SDS011;31390;51.186;6.830;2023-03-01T00:14:08;11.67;;;10.00;;
45676;SDS011;31390;51.186;6.830;2023-03-01T00:16:39;12.70;;;10.00;;
45676;SDS011;31390;51.186;6.830;2023-03-01T00:19:10;12.37;;;9.90;;
45676;SDS011;31390;51.186;6.830;2023-03-01T00:21:37;17.47;;;9.67;;
45676;SDS011;31390;51.186;6.830;2023-03-01T00:24:04;11.00;;;9.90;;
45676;SDS011;31390;51.186;6.830;2023-03-01T00:26:30;11.90;;;9.73;;
45676;SDS011;31390;51.186;6.830;2023-03-01T00:28:58;10.00;;;9.07;;
45676;SDS011;31390;51.186;6.830;2023-03-01T00:31:26;10.60;;;9.23;;
45676;SDS011;31390;51.186;6.830;2023-03-01T00:33:56;9.97;;;8.97;;
45676;SDS011;31390;51.186;6.830;2023-03-01T00:36:25;10.17;;;9.10;;
45676;SDS011;31390;51.186;6.830;2023-03-01T00:38:52;11.10;;;10.00;;
45676;SDS011;31390;51.186;6.830;2023-03-01T00:41:19;11.40;;;10.30;;
45676;SDS011;31390;51.186;6.830;2023-03-01T00:43:45;11.20;;;10.10;;
45676;SDS011;31390;51.186;6.830;2023-03-01T00:46:13;10.67;;;9.67;;
45676;SDS011;31390;51.186;6.830;2023-03-01T00:48:40;11.30;;;10.23;;
45676;SDS011;31390;51.186;6.830;2023-03-01T00:53:33;11.10;;;9.90;;
45676;SDS011;31390;51.186;6.830;2023-03-01T00:56:00;10.63;;;9.40;;
45676;SDS011;31390;51.186;6.830;2023-03-01T00:58:27;14.87;;;10.83;;
45676;SDS011;31390;51.186;6.830;2023-03-01T01:00:53;14.30;;;10.27;;
45676;SDS011;31390;51.186;6.830;2023-03-01T01:03:20;14.70;;;11.17;;
45676;SDS011;31390;51.186;6.830;2023-03-01T01:05:47;12.77;;;10.30;;
45676;SDS011;31390;51.186;6.830;2023-03-01T01:08:13;11.33;;;10.20;;
45676;SDS011;31390;51.186;6.830;2023-03-01T01:10:40;11.63;;;10.50;;
45676;SDS011;31390;51.186;6.830;2023-03-01T01:13:06;11.70;;;10.50;;
45676;SDS011;31390;51.186;6.830;2023-03-01T01:15:33;11.63;;;10.43;;
45676;SDS011;31390;51.186;6.830;2023-03-01T01:18:01;11.07;;;9.97;;
45676;SDS011;31390;51.186;6.830;2023-03-01T01:20:27;14.60;;;11.70;;
45676;SDS011;31390;51.186;6.830;2023-03-01T01:22:54;12.53;;;10.93;;
45676;SDS011;31390;51.186;6.830;2023-03-01T01:25:20;12.27;;;10.97;;
45676;SDS011;31390;51.186;6.830;2023-03-01T01:27:47;10.77;;;9.60;;
45676;SDS011;31390;51.186;6.830;2023-03-01T01:30:14;12.03;;;10.83;;
45676;SDS011;31390;51.186;6.830;2023-03-01T01:32:40;14.33;;;11.90;;
45676;SDS011;31390;51.186;6.830;2023-03-01T01:35:07;12.77;;;11.40;;
45676;SDS011;31390;51.186;6.830;2023-03-01T01:37:33;15.00;;;11.30;;
45676;SDS011;31390;51.186;6.830;2023-03-01T01:40:00;12.43;;;11.13;;
45676;SDS011;31390;51.186;6.830;2023-03-01T01:42:27;13.43;;;11.13;;
45676;SDS011;31390;51.186;6.830;2023-03-01T01:45:23;15.90;;;11.63;;
45676;SDS011;31390;51.186;6.830;2023-03-01T01:47:40;16.27;;;10.87;;
45676;SDS011;31390;51.186;6.830;2023-03-01T01:50:08;16.23;;;11.43;;
45676;SDS011;31390;51.186;6.830;2023-03-01T01:52:40;14.50;;;11.67;;
45676;SDS011;31390;51.186;6.830;2023-03-01T01:57:37;13.70;;;11.43;;
45676;SDS011;31390;51.186;6.830;2023-03-01T02:00:07;16.33;;;11.83;;
45676;SDS011;31390;51.186;6.830;2023-03-01T02:02:38;12.87;;;11.60;;
45676;SDS011;31390;51.186;6.830;2023-03-01T02:05:08;16.37;;;12.60;;
45676;SDS011;31390;51.186;6.830;2023-03-01T02:07:37;12.10;;;11.00;;
45676;SDS011;31390;51.186;6.830;2023-03-01T02:10:05;12.57;;;11.27;;
45676;SDS011;31390;51.186;6.830;2023-03-01T02:12:32;12.83;;;11.53;;
45676;SDS011;31390;51.186;6.830;2023-03-01T02:15:00;12.30;;;10.90;;
45676;SDS011;31390;51.186;6.830;2023-03-01T02:17:26;15.40;;;12.53;;
45676;SDS011;31390;51.186;6.830;2023-03-01T02:19:57;16.00;;;11.60;;
45676;SDS011;31390;51.186;6.830;2023-03-01T02:22:30;14.90;;;11.93;;
45676;SDS011;31390;51.186;6.830;2023-03-01T02:28:02;14.37;;;12.80;;
45676;SDS011;31390;51.186;6.830;2023-03-01T02:30:31;16.40;;;11.80;;
45676;SDS011;31390;51.186;6.830;2023-03-01T02:32:58;18.07;;;11.80;;
45676;SDS011;31390;51.186;6.830;2023-03-01T02:35:30;15.00;;;11.77;;
45676;SDS011;31390;51.186;6.830;2023-03-01T02:37:58;15.20;;;13.07;;
45676;SDS011;31390;51.186;6.830;2023-03-01T02:40:28;20.67;;;13.23;;
45676;SDS011;31390;51.186;6.830;2023-03-01T02:42:56;15.70;;;12.10;;
45676;SDS011;31390;51.186;6.830;2023-03-01T02:45:23;14.53;;;12.30;;
45676;SDS011;31390;51.186;6.830;2023-03-01T02:47:53;13.17;;;11.87;;
45676;SDS011;31390;51.186;6.830;2023-03-01T02:52:55;15.37;;;13.77;;
45676;SDS011;31390;51.186;6.830;2023-03-01T02:55:25;18.57;;;13.43;;
45676;SDS011;31390;51.186;6.830;2023-03-01T02:57:52;16.43;;;12.93;;
45676;SDS011;31390;51.186;6.830;2023-03-01T03:00:21;16.67;;;13.33;;
45676;SDS011;31390;51.186;6.830;2023-03-01T03:02:52;13.53;;;12.13;;
45676;SDS011;31390;51.186;6.830;2023-03-01T03:05:28;16.83;;;12.70;;
45676;SDS011;31390;51.186;6.830;2023-03-01T03:07:56;18.40;;;12.07;;
45676;SDS011;31390;51.186;6.830;2023-03-01T03:10:28;20.73;;;12.83;;
45676;SDS011;31390;51.186;6.830;2023-03-01T03:12:56;16.70;;;11.90;;
45676;SDS011;31390;51.186;6.830;2023-03-01T03:15:23;22.23;;;12.83;;
45676;SDS011;31390;51.186;6.830;2023-03-01T03:17:51;18.60;;;13.10;;
45676;SDS011;31390;51.186;6.830;2023-03-01T03:20:18;19.10;;;13.83;;
45676;SDS011;31390;51.186;6.830;2023-03-01T03:22:46;19.80;;;13.37;;
45676;SDS011;31390;51.186;6.830;2023-03-01T03:25:13;18.23;;;13.53;;
45676;SDS011;31390;51.186;6.830;2023-03-01T03:27:41;16.03;;;12.00;;
45676;SDS011;31390;51.186;6.830;2023-03-01T03:30:09;20.40;;;12.37;;
45676;SDS011;31390;51.186;6.830;2023-03-01T03:32:36;18.40;;;13.27;;
45676;SDS011;31390;51.186;6.830;2023-03-01T03:35:06;21.87;;;13.00;;
45676;SDS011;31390;51.186;6.830;2023-03-01T03:37:36;19.70;;;12.90;;
45676;SDS011;31390;51.186;6.830;2023-03-01T03:40:21;16.97;;;12.57;;
45676;SDS011;31390;51.186;6.830;2023-03-01T03:42:47;15.23;;;13.70;;
45676;SDS011;31390;51.186;6.830;2023-03-01T03:45:15;17.93;;;13.63;;
45676;SDS011;31390;51.186;6.830;2023-03-01T03:47:41;20.43;;;14.03;;
45676;SDS011;31390;51.186;6.830;2023-03-01T03:50:09;18.47;;;13.43;;
45676;SDS011;31390;51.186;6.830;2023-03-01T03:52:35;24.33;;;14.03;;
45676;SDS011;31390;51.186;6.830;2023-03-01T03:55:02;19.60;;;13.50;;
45676;SDS011;31390;51.186;6.830;2023-03-01T03:57:29;15.87;;;14.13;;
45676;SDS011;31390;51.186;6.830;2023-03-01T03:59:55;19.83;;;14.80;;
45676;SDS011;31390;51.186;6.830;2023-03-01T04:02:21;19.03;;;14.03;;
45676;SDS011;31390;51.186;6.830;2023-03-01T04:04:48;17.17;;;14.27;;
45676;SDS011;31390;51.186;6.830;2023-03-01T04:07:18;24.53;;;16.17;;
45676;SDS011;31390;51.186;6.830;2023-03-01T04:09:45;20.77;;;14.23;;
45676;SDS011;31390;51.186;6.830;2023-03-01T04:12:11;22.40;;;14.60;;
45676;SDS011;31390;51.186;6.830;2023-03-01T04:14:38;21.17;;;15.00;;
45676;SDS011;31390;51.186;6.830;2023-03-01T04:17:04;25.07;;;14.93;;
45676;SDS011;31390;51.186;6.830;2023-03-01T04:19:31;21.27;;;15.30;;
45676;SDS011;31390;51.186;6.830;2023-03-01T04:22:02;17.83;;;16.10;;
45676;SDS011;31390;51.186;6.830;2023-03-01T04:24:35;20.03;;;15.50;;
45676;SDS011;31390;51.186;6.830;2023-03-01T04:27:02;25.93;;;16.17;;
45676;SDS011;31390;51.186;6.830;2023-03-01T04:29:28;26.07;;;16.93;;
45676;SDS011;31390;51.186;6.830;2023-03-01T04:31:55;22.50;;;15.13;;
45676;SDS011;31390;51.186;6.830;2023-03-01T04:34:21;18.13;;;16.33;;
45676;SDS011;31390;51.186;6.830;2023-03-01T04:36:48;24.00;;;17.20;;
45676;SDS011;31390;51.186;6.830;2023-03-01T04:39:15;24.50;;;15.07;;
45676;SDS011;31390;51.186;6.830;2023-03-01T04:41:41;22.07;;;15.17;;
45676;SDS011;31390;51.186;6.830;2023-03-01T04:44:09;25.37;;;15.80;;
45676;SDS011;31390;51.186;6.830;2023-03-01T04:46:36;24.43;;;15.27;;
45676;SDS011;31390;51.186;6.830;2023-03-01T04:49:03;24.77;;;15.47;;
45676;SDS011;31390;51.186;6.830;2023-03-01T04:51:29;25.47;;;16.70;;
45676;SDS011;31390;51.186;6.830;2023-03-01T04:53:56;18.77;;;16.93;;
45676;SDS011;31390;51.186;6.830;2023-03-01T04:56:22;25.03;;;16.87;;
45676;SDS011;31390;51.186;6.830;2023-03-01T04:58:49;27.27;;;18.17;;
45676;SDS011;31390;51.186;6.830;2023-03-01T05:01:17;19.90;;;17.90;;
45676;SDS011;31390;51.186;6.830;2023-03-01T05:03:44;26.23;;;17.80;;
45676;SDS011;31390;51.186;6.830;2023-03-01T05:06:11;24.47;;;16.33;;
45676;SDS011;31390;51.186;6.830;2023-03-01T05:08:38;24.90;;;17.13;;
45676;SDS011;31390;51.186;6.830;2023-03-01T05:11:05;26.37;;;16.90;;
45676;SDS011;31390;51.186;6.830;2023-03-01T05:13:31;29.23;;;17.60;;
45676;SDS011;31390;51.186;6.830;2023-03-01T05:15:59;28.00;;;18.27;;
45676;SDS011;31390;51.186;6.830;2023-03-01T05:18:27;29.20;;;18.20;;
45676;SDS011;31390;51.186;6.830;2023-03-01T05:20:54;24.47;;;17.57;;
45676;SDS011;31390;51.186;6.830;2023-03-01T05:23:22;24.77;;;17.40;;
45676;SDS011;31390;51.186;6.830;2023-03-01T05:25:49;24.33;;;16.40;;
45676;SDS011;31390;51.186;6.830;2023-03-01T05:28:19;21.03;;;18.87;;
45676;SDS011;31390;51.186;6.830;2023-03-01T05:30:46;26.90;;;18.67;;
45676;SDS011;31390;51.186;6.830;2023-03-01T05:33:12;25.67;;;17.60;;
45676;SDS011;31390;51.186;6.830;2023-03-01T05:35:42;25.63;;;16.50;;
45676;SDS011;31390;51.186;6.830;2023-03-01T05:38:12;25.17;;;16.17;;
45676;SDS011;31390;51.186;6.830;2023-03-01T05:40:42;26.40;;;16.80;;
45676;SDS011;31390;51.186;6.830;2023-03-01T05:43:10;25.23;;;17.53;;
45676;SDS011;31390;51.186;6.830;2023-03-01T05:45:37;26.17;;;18.20;;
45676;SDS011;31390;51.186;6.830;2023-03-01T05:48:05;26.87;;;17.67;;
45676;SDS011;31390;51.186;6.830;2023-03-01T05:50:33;19.13;;;17.23;;
45676;SDS011;31390;51.186;6.830;2023-03-01T05:53:00;25.87;;;19.57;;
45676;SDS011;31390;51.186;6.830;2023-03-01T05:55:27;21.60;;;19.30;;
45676;SDS011;31390;51.186;6.830;2023-03-01T05:57:54;20.67;;;18.50;;
45676;SDS011;31390;51.186;6.830;2023-03-01T06:00:22;19.70;;;17.57;;
45676;SDS011;31390;51.186;6.830;2023-03-01T06:02:48;27.70;;;19.33;;
45676;SDS011;31390;51.186;6.830;2023-03-01T06:05:15;24.73;;;18.10;;
45676;SDS011;31390;51.186;6.830;2023-03-01T06:07:42;27.13;;;18.57;;
45676;SDS011;31390;51.186;6.830;2023-03-01T06:10:09;26.10;;;18.20;;
45676;SDS011;31390;51.186;6.830;2023-03-01T06:12:36;30.70;;;19.27;;
45676;SDS011;31390;51.186;6.830;2023-03-01T06:15:03;21.60;;;19.30;;
45676;SDS011;31390;51.186;6.830;2023-03-01T06:17:31;26.60;;;18.93;;
45676;SDS011;31390;51.186;6.830;2023-03-01T06:19:58;26.97;;;18.47;;
45676;SDS011;31390;51.186;6.830;2023-03-01T06:22:25;30.70;;;19.63;;
45676;SDS011;31390;51.186;6.830;2023-03-01T06:24:51;24.83;;;18.27;;
45676;SDS011;31390;51.186;6.830;2023-03-01T06:27:18;21.37;;;18.87;;
45676;SDS011;31390;51.186;6.830;2023-03-01T06:29:44;28.00;;;19.53;;
45676;SDS011;31390;51.186;6.830;2023-03-01T06:32:11;21.47;;;19.27;;
45676;SDS011;31390;51.186;6.830;2023-03-01T06:34:37;26.80;;;18.30;;
45676;SDS011;31390;51.186;6.830;2023-03-01T06:37:04;28.23;;;19.10;;
45676;SDS011;31390;51.186;6.830;2023-03-01T06:39:31;28.77;;;18.30;;
45676;SDS011;31390;51.186;6.830;2023-03-01T06:41:58;28.90;;;18.70;;
45676;SDS011;31390;51.186;6.830;2023-03-01T06:44:25;31.07;;;19.20;;
45676;SDS011;31390;51.186;6.830;2023-03-01T06:46:51;31.87;;;18.40;;
45676;SDS011;31390;51.186;6.830;2023-03-01T06:49:18;27.47;;;18.70;;
45676;SDS011;31390;51.186;6.830;2023-03-01T06:51:44;27.97;;;19.27;;
45676;SDS011;31390;51.186;6.830;2023-03-01T06:54:11;25.80;;;19.03;;
45676;SDS011;31390;51.186;6.830;2023-03-01T06:56:37;23.87;;;19.93;;
45676;SDS011;31390;51.186;6.830;2023-03-01T06:59:04;29.63;;;20.47;;
45676;SDS011;31390;51.186;6.830;2023-03-01T07:01:31;28.57;;;19.40;;
45676;SDS011;31390;51.186;6.830;2023-03-01T07:03:58;28.17;;;19.00;;
45676;SDS011;31390;51.186;6.830;2023-03-01T07:06:24;29.03;;;18.70;;
45676;SDS011;31390;51.186;6.830;2023-03-01T07:08:50;25.83;;;17.60;;
45676;SDS011;31390;51.186;6.830;2023-03-01T07:11:17;25.63;;;17.07;;
45676;SDS011;31390;51.186;6.830;2023-03-01T07:13:43;24.83;;;15.90;;
45676;SDS011;31390;51.186;6.830;2023-03-01T07:16:10;27.90;;;17.23;;
45676;SDS011;31390;51.186;6.830;2023-03-01T07:18:36;21.10;;;16.30;;
45676;SDS011;31390;51.186;6.830;2023-03-01T07:21:04;25.77;;;16.30;;
45676;SDS011;31390;51.186;6.830;2023-03-01T07:23:30;26.03;;;17.20;;
45676;SDS011;31390;51.186;6.830;2023-03-01T07:25:57;20.70;;;17.67;;
45676;SDS011;31390;51.186;6.830;2023-03-01T07:28:24;24.40;;;17.63;;
45676;SDS011;31390;51.186;6.830;2023-03-01T07:30:50;20.77;;;15.90;;
45676;SDS011;31390;51.186;6.830;2023-03-01T07:33:17;20.53;;;16.33;;
45676;SDS011;31390;51.186;6.830;2023-03-01T07:35:43;18.80;;;14.87;;
45676;SDS011;31390;51.186;6.830;2023-03-01T07:38:10;18.10;;;15.10;;
45676;SDS011;31390;51.186;6.830;2023-03-01T07:40:36;18.07;;;14.93;;
45676;SDS011;31390;51.186;6.830;2023-03-01T07:43:03;21.63;;;15.03;;
45676;SDS011;31390;51.186;6.830;2023-03-01T07:45:29;19.97;;;15.20;;
45676;SDS011;31390;51.186;6.830;2023-03-01T07:47:56;22.30;;;15.47;;
45676;SDS011;31390;51.186;6.830;2023-03-01T07:50:22;21.33;;;15.23;;
45676;SDS011;31390;51.186;6.830;2023-03-01T07:52:50;23.23;;;16.23;;
45676;SDS011;31390;51.186;6.830;2023-03-01T07:55:16;26.83;;;16.33;;
45676;SDS011;31390;51.186;6.830;2023-03-01T07:57:43;21.30;;;15.70;;
45676;SDS011;31390;51.186;6.830;2023-03-01T08:00:10;27.53;;;16.30;;
45676;SDS011;31390;51.186;6.830;2023-03-01T08:02:38;17.47;;;14.60;;
45676;SDS011;31390;51.186;6.830;2023-03-01T08:05:06;23.17;;;14.43;;
45676;SDS011;31390;51.186;6.830;2023-03-01T08:07:33;19.63;;;13.73;;
45676;SDS011;31390;51.186;6.830;2023-03-01T08:09:59;18.97;;;14.60;;
45676;SDS011;31390;51.186;6.830;2023-03-01T08:12:26;20.23;;;15.37;;
45676;SDS011;31390;51.186;6.830;2023-03-01T08:14:54;20.87;;;14.23;;
45676;SDS011;31390;51.186;6.830;2023-03-01T08:17:21;21.10;;;14.60;;
45676;SDS011;31390;51.186;6.830;2023-03-01T08:19:47;20.30;;;14.27;;
45676;SDS011;31390;51.186;6.830;2023-03-01T08:22:14;20.10;;;14.20;;
45676;SDS011;31390;51.186;6.830;2023-03-01T08:24:40;19.13;;;13.50;;
45676;SDS011;31390;51.186;6.830;2023-03-01T08:27:07;17.87;;;13.77;;
45676;SDS011;31390;51.186;6.830;2023-03-01T08:29:34;14.00;;;11.90;;
45676;SDS011;31390;51.186;6.830;2023-03-01T08:32:00;16.00;;;13.83;;
45676;SDS011;31390;51.186;6.830;2023-03-01T08:34:27;16.77;;;14.57;;
45676;SDS011;31390;51.186;6.830;2023-03-01T08:36:53;15.77;;;13.37;;
45676;SDS011;31390;51.186;6.830;2023-03-01T08:39:20;14.50;;;12.47;;
45676;SDS011;31390;51.186;6.830;2023-03-01T08:41:46;14.27;;;12.77;;
45676;SDS011;31390;51.186;6.830;2023-03-01T08:44:14;16.57;;;13.00;;
45676;SDS011;31390;51.186;6.830;2023-03-01T08:46:43;16.53;;;13.17;;
45676;SDS011;31390;51.186;6.830;2023-03-01T08:49:19;13.33;;;11.67;;
45676;SDS011;31390;51.186;6.830;2023-03-01T08:51:48;15.63;;;13.20;;
45676;SDS011;31390;51.186;6.830;2023-03-01T08:54:16;15.57;;;12.93;;
45676;SDS011;31390;51.186;6.830;2023-03-01T08:56:43;14.93;;;12.43;;
45676;SDS011;31390;51.186;6.830;2023-03-01T08:59:10;13.00;;;11.73;;
45676;SDS011;31390;51.186;6.830;2023-03-01T09:01:37;13.07;;;11.87;;
45676;SDS011;31390;51.186;6.830;2023-03-01T09:04:03;12.90;;;11.50;;
45676;SDS011;31390;51.186;6.830;2023-03-01T09:06:33;13.43;;;12.03;;
45676;SDS011;31390;51.186;6.830;2023-03-01T09:09:00;14.00;;;12.50;;
45676;SDS011;31390;51.186;6.830;2023-03-01T09:11:27;14.80;;;12.10;;
45676;SDS011;31390;51.186;6.830;2023-03-01T09:13:54;14.33;;;12.33;;
45676;SDS011;31390;51.186;6.830;2023-03-01T09:16:21;15.50;;;11.97;;
45676;SDS011;31390;51.186;6.830;2023-03-01T09:18:48;14.13;;;12.73;;
45676;SDS011;31390;51.186;6.830;2023-03-01T09:21:15;18.70;;;12.73;;
45676;SDS011;31390;51.186;6.830;2023-03-01T09:23:45;15.37;;;12.70;;
45676;SDS011;31390;51.186;6.830;2023-03-01T09:26:13;13.97;;;12.30;;
45676;SDS011;31390;51.186;6.830;2023-03-01T09:28:42;13.40;;;12.00;;
45676;SDS011;31390;51.186;6.830;2023-03-01T09:31:10;13.50;;;12.00;;
45676;SDS011;31390;51.186;6.830;2023-03-01T09:33:39;13.97;;;11.23;;
45676;SDS011;31390;51.186;6.830;2023-03-01T09:36:08;13.00;;;10.90;;
45676;SDS011;31390;51.186;6.830;2023-03-01T09:38:36;13.23;;;10.67;;
45676;SDS011;31390;51.186;6.830;2023-03-01T09:41:02;11.83;;;10.63;;
45676;SDS011;31390;51.186;6.830;2023-03-01T09:46:11;13.27;;;11.67;;
45676;SDS011;31390;51.186;6.830;2023-03-01T09:48:48;14.97;;;10.33;;
45676;SDS011;31390;51.186;6.830;2023-03-01T09:51:17;12.10;;;10.00;;
45676;SDS011;31390;51.186;6.830;2023-03-01T09:53:44;12.20;;;10.70;;
45676;SDS011;31390;51.186;6.830;2023-03-01T09:56:21;11.10;;;9.93;;
45676;SDS011;31390;51.186;6.830;2023-03-01T09:58:54;11.90;;;10.50;;
45676;SDS011;31390;51.186;6.830;2023-03-01T10:03:58;10.80;;;9.40;;
45676;SDS011;31390;51.186;6.830;2023-03-01T10:06:27;10.90;;;9.80;;
45676;SDS011;31390;51.186;6.830;2023-03-01T10:11:30;12.43;;;10.83;;
45676;SDS011;31390;51.186;6.830;2023-03-01T10:16:28;10.37;;;9.37;;
45676;SDS011;31390;51.186;6.830;2023-03-01T10:19:00;11.87;;;10.07;;
45676;SDS011;31390;51.186;6.830;2023-03-01T10:21:28;10.80;;;9.70;;
45676;SDS011;31390;51.186;6.830;2023-03-01T10:24:01;10.60;;;9.57;;
45676;SDS011;31390;51.186;6.830;2023-03-01T10:26:42;10.40;;;9.37;;
45676;SDS011;31390;51.186;6.830;2023-03-01T10:29:11;12.77;;;10.53;;
45676;SDS011;31390;51.186;6.830;2023-03-01T10:34:09;11.23;;;10.13;;
45676;SDS011;31390;51.186;6.830;2023-03-01T10:36:36;10.00;;;9.00;;
45676;SDS011;31390;51.186;6.830;2023-03-01T10:39:05;10.83;;;9.80;;
45676;SDS011;31390;51.186;6.830;2023-03-01T10:41:37;11.40;;;10.20;;
45676;SDS011;31390;51.186;6.830;2023-03-01T10:44:10;11.17;;;9.90;;
45676;SDS011;31390;51.186;6.830;2023-03-01T10:47:00;13.97;;;11.37;;
45676;SDS011;31390;51.186;6.830;2023-03-01T10:49:27;11.83;;;10.63;;
45676;SDS011;31390;51.186;6.830;2023-03-01T10:51:54;11.43;;;10.23;;
45676;SDS011;31390;51.186;6.830;2023-03-01T10:54:22;11.33;;;10.10;;
45676;SDS011;31390;51.186;6.830;2023-03-01T10:56:50;12.50;;;10.33;;
45676;SDS011;31390;51.186;6.830;2023-03-01T10:59:22;11.30;;;9.87;;
45676;SDS011;31390;51.186;6.830;2023-03-01T11:02:09;12.00;;;10.40;;
45676;SDS011;31390;51.186;6.830;2023-03-01T11:04:57;13.13;;;9.60;;
45676;SDS011;31390;51.186;6.830;2023-03-01T11:07:24;10.63;;;9.53;;
45676;SDS011;31390;51.186;6.830;2023-03-01T11:09:50;11.30;;;10.10;;
45676;SDS011;31390;51.186;6.830;2023-03-01T11:12:17;12.23;;;10.13;;
45676;SDS011;31390;51.186;6.830;2023-03-01T11:14:50;11.47;;;10.27;;
45676;SDS011;31390;51.186;6.830;2023-03-01T11:17:21;11.73;;;10.40;;
45676;SDS011;31390;51.186;6.830;2023-03-01T11:19:59;11.20;;;10.07;;
45676;SDS011;31390;51.186;6.830;2023-03-01T11:22:28;11.47;;;10.37;;
45676;SDS011;31390;51.186;6.830;2023-03-01T11:24:55;12.70;;;10.93;;
45676;SDS011;31390;51.186;6.830;2023-03-01T11:27:37;11.33;;;10.07;;
45676;SDS011;31390;51.186;6.830;2023-03-01T11:30:07;11.37;;;10.17;;
45676;SDS011;31390;51.186;6.830;2023-03-01T11:32:40;11.50;;;10.33;;
45676;SDS011;31390;51.186;6.830;2023-03-01T11:35:18;12.50;;;11.20;;
45676;SDS011;31390;51.186;6.830;2023-03-01T11:38:03;12.47;;;11.00;;
45676;SDS011;31390;51.186;6.830;2023-03-01T11:43:13;11.95;;;10.00;;
45676;SDS011;31390;51.186;6.830;2023-03-01T11:45:43;11.68;;;10.07;;
45676;SDS011;31390;51.186;6.830;2023-03-01T11:50:51;12.77;;;10.70;;
45676;SDS011;31390;51.186;6.830;2023-03-01T12:16:54;12.35;;;10.80;;
45676;SDS011;31390;51.186;6.830;2023-03-01T12:22:16;11.98;;;9.57;;
45676;SDS011;31390;51.186;6.830;2023-03-01T12:24:46;10.68;;;9.68;;
45676;SDS011;31390;51.186;6.830;2023-03-01T12:27:25;11.77;;;9.90;;
45676;SDS011;31390;51.186;6.830;2023-03-01T12:34:55;10.57;;;9.52;;
45676;SDS011;31390;51.186;6.830;2023-03-01T12:45:30;9.45;;;7.88;;
45676;SDS011;31390;51.186;6.830;2023-03-01T12:50:48;10.68;;;8.50;;
45676;SDS011;31390;51.186;6.830;2023-03-01T12:53:28;10.30;;;7.95;;
45676;SDS011;31390;51.186;6.830;2023-03-01T12:56:00;10.50;;;7.80;;
45676;SDS011;31390;51.186;6.830;2023-03-01T12:58:28;9.60;;;7.85;;
45676;SDS011;31390;51.186;6.830;2023-03-01T13:01:18;9.55;;;7.57;;
45676;SDS011;31390;51.186;6.830;2023-03-01T13:11:51;8.48;;;7.55;;
45676;SDS011;31390;51.186;6.830;2023-03-01T13:16:47;8.43;;;7.53;;
45676;SDS011;31390;51.186;6.830;2023-03-01T13:19:20;9.02;;;7.32;;
45676;SDS011;31390;51.186;6.830;2023-03-01T13:21:48;12.68;;;8.00;;
45676;SDS011;31390;51.186;6.830;2023-03-01T13:24:29;8.82;;;7.80;;
45676;SDS011;31390;51.186;6.830;2023-03-01T13:29:45;9.82;;;8.15;;
45676;SDS011;31390;51.186;6.830;2023-03-01T13:32:25;14.82;;;8.00;;
45676;SDS011;31390;51.186;6.830;2023-03-01T13:37:45;9.98;;;8.23;;
45676;SDS011;31390;51.186;6.830;2023-03-01T13:42:44;8.43;;;7.22;;
45676;SDS011;31390;51.186;6.830;2023-03-01T13:45:40;8.40;;;7.60;;
45676;SDS011;31390;51.186;6.830;2023-03-01T13:48:10;9.52;;;7.93;;
45676;SDS011;31390;51.186;6.830;2023-03-01T13:50:38;8.15;;;6.75;;
45676;SDS011;31390;51.186;6.830;2023-03-01T13:53:10;9.93;;;7.70;;
45676;SDS011;31390;51.186;6.830;2023-03-01T13:55:41;9.60;;;7.82;;
45676;SDS011;31390;51.186;6.830;2023-03-01T13:58:22;9.30;;;7.32;;
45676;SDS011;31390;51.186;6.830;2023-03-01T14:01:36;8.10;;;7.35;;
45676;SDS011;31390;51.186;6.830;2023-03-01T14:03:40;7.60;;;6.82;;
45676;SDS011;31390;51.186;6.830;2023-03-01T14:06:09;8.45;;;7.55;;
45676;SDS011;31390;51.186;6.830;2023-03-01T14:08:42;8.55;;;7.60;;
45676;SDS011;31390;51.186;6.830;2023-03-01T14:19:14;9.68;;;7.60;;
45676;SDS011;31390;51.186;6.830;2023-03-01T14:22:04;10.10;;;7.75;;
45676;SDS011;31390;51.186;6.830;2023-03-01T14:24:32;9.90;;;8.13;;
45676;SDS011;31390;51.186;6.830;2023-03-01T14:27:01;8.68;;;7.75;;
45676;SDS011;31390;51.186;6.830;2023-03-01T14:29:37;10.15;;;7.63;;
45676;SDS011;31390;51.186;6.830;2023-03-01T14:32:21;9.13;;;8.07;;
45676;SDS011;31390;51.186;6.830;2023-03-01T14:34:48;9.50;;;7.80;;
45676;SDS011;31390;51.186;6.830;2023-03-01T14:37:20;10.00;;;7.57;;
45676;SDS011;31390;51.186;6.830;2023-03-01T14:39:47;9.85;;;7.80;;
45676;SDS011;31390;51.186;6.830;2023-03-01T14:42:13;8.00;;;7.20;;
45676;SDS011;31390;51.186;6.830;2023-03-01T14:44:45;8.30;;;7.50;;
45676;SDS011;31390;51.186;6.830;2023-03-01T14:47:14;8.30;;;7.35;;
45676;SDS011;31390;51.186;6.830;2023-03-01T14:49:42;8.27;;;7.38;;
45676;SDS011;31390;51.186;6.830;2023-03-01T14:52:20;8.70;;;7.25;;
45676;SDS011;31390;51.186;6.830;2023-03-01T14:54:48;10.63;;;7.45;;
45676;SDS011;31390;51.186;6.830;2023-03-01T14:59:48;10.18;;;7.68;;
45676;SDS011;31390;51.186;6.830;2023-03-01T15:02:21;12.95;;;7.97;;
45676;SDS011;31390;51.186;6.830;2023-03-01T15:04:49;9.20;;;7.38;;
45676;SDS011;31390;51.186;6.830;2023-03-01T15:07:16;7.88;;;7.05;;
45676;SDS011;31390;51.186;6.830;2023-03-01T15:09:43;11.27;;;6.80;;
45676;SDS011;31390;51.186;6.830;2023-03-01T15:12:34;9.40;;;7.22;;
45676;SDS011;31390;51.186;6.830;2023-03-01T15:14:56;9.60;;;7.63;;
45676;SDS011;31390;51.186;6.830;2023-03-01T15:17:36;8.75;;;7.10;;
45676;SDS011;31390;51.186;6.830;2023-03-01T15:20:05;10.48;;;7.18;;
45676;SDS011;31390;51.186;6.830;2023-03-01T15:22:32;10.48;;;7.05;;
45676;SDS011;31390;51.186;6.830;2023-03-01T15:24:59;9.48;;;7.05;;
45676;SDS011;31390;51.186;6.830;2023-03-01T15:27:25;8.38;;;6.53;;
45676;SDS011;31390;51.186;6.830;2023-03-01T15:29:54;9.25;;;7.22;;
45676;SDS011;31390;51.186;6.830;2023-03-01T15:32:32;9.00;;;7.13;;
45676;SDS011;31390;51.186;6.830;2023-03-01T15:35:00;8.80;;;7.40;;
45676;SDS011;31390;51.186;6.830;2023-03-01T15:37:46;9.00;;;6.83;;
45676;SDS011;31390;51.186;6.830;2023-03-01T15:40:26;7.07;;;6.38;;
45676;SDS011;31390;51.186;6.830;2023-03-01T15:42:59;8.48;;;6.60;;
45676;SDS011;31390;51.186;6.830;2023-03-01T15:45:27;9.05;;;6.40;;
45676;SDS011;31390;51.186;6.830;2023-03-01T15:47:58;6.63;;;6.03;;
45676;SDS011;31390;51.186;6.830;2023-03-01T15:50:28;7.30;;;6.53;;
45676;SDS011;31390;51.186;6.830;2023-03-01T15:52:55;10.15;;;6.82;;
45676;SDS011;31390;51.186;6.830;2023-03-01T15:55:26;7.35;;;6.60;;
45676;SDS011;31390;51.186;6.830;2023-03-01T15:58:04;8.30;;;6.85;;
45676;SDS011;31390;51.186;6.830;2023-03-01T16:00:31;7.85;;;6.35;;
45676;SDS011;31390;51.186;6.830;2023-03-01T16:02:57;8.27;;;6.30;;
45676;SDS011;31390;51.186;6.830;2023-03-01T16:05:25;8.43;;;6.10;;
45676;SDS011;31390;51.186;6.830;2023-03-01T16:07:52;6.65;;;6.00;;
45676;SDS011;31390;51.186;6.830;2023-03-01T16:10:19;10.90;;;6.60;;
45676;SDS011;31390;51.186;6.830;2023-03-01T16:12:46;7.40;;;6.70;;
45676;SDS011;31390;51.186;6.830;2023-03-01T16:15:21;6.93;;;6.22;;
45676;SDS011;31390;51.186;6.830;2023-03-01T16:17:48;8.27;;;6.67;;
45676;SDS011;31390;51.186;6.830;2023-03-01T16:20:20;8.15;;;6.60;;